sensor_id;sensor_type;location;lat;lon;timestamp;P1;durP1;ratioP1;P2;durP2;ratioP2
65904;SDS011;56275;49.802;24.020;2022-11-20T09:04:51;10.20;;;6.22;;
65904;SDS011;56275;49.802;24.020;2022-11-20T09:07:44;13.60;;;7.35;;
65904;SDS011;56275;49.802;24.020;2022-11-20T09:10:35;23.60;;;7.45;;
65904;SDS011;56275;49.802;24.020;2022-11-20T09:13:30;14.13;;;7.45;;
65904;SDS011;56275;49.802;24.020;2022-11-20T09:16:23;15.32;;;6.65;;
65904;SDS011;56275;49.802;24.020;2022-11-20T09:19:14;29.23;;;10.05;;
65904;SDS011;56275;49.802;24.020;2022-11-20T09:22:05;33.95;;;11.63;;
65904;SDS011;56275;49.802;24.020;2022-11-20T09:24:57;28.77;;;10.02;;
65904;SDS011;56275;49.802;24.020;2022-11-20T09:27:54;24.73;;;9.57;;
65904;SDS011;56275;49.802;24.020;2022-11-20T09:30:46;23.48;;;10.63;;
65904;SDS011;56275;49.802;24.020;2022-11-20T09:33:38;20.50;;;8.48;;
65904;SDS011;56275;49.802;24.020;2022-11-20T09:36:29;23.33;;;8.95;;
65904;SDS011;56275;49.802;24.020;2022-11-20T09:39:20;29.95;;;9.98;;
65904;SDS011;56275;49.802;24.020;2022-11-20T09:54:35;18.23;;;8.05;;
65904;SDS011;56275;49.802;24.020;2022-11-20T09:57:33;23.13;;;9.02;;
65904;SDS011;56275;49.802;24.020;2022-11-20T10:00:27;18.13;;;8.53;;
65904;SDS011;56275;49.802;24.020;2022-11-20T10:03:21;29.55;;;9.65;;
65904;SDS011;56275;49.802;24.020;2022-11-20T10:06:31;16.45;;;8.15;;
65904;SDS011;56275;49.802;24.020;2022-11-20T10:09:49;19.15;;;8.35;;
65904;SDS011;56275;49.802;24.020;2022-11-20T10:22:33;21.58;;;8.75;;
65904;SDS011;56275;49.802;24.020;2022-11-20T10:25:37;17.27;;;8.32;;
65904;SDS011;56275;49.802;24.020;2022-11-20T10:28:43;23.80;;;8.95;;
65904;SDS011;56275;49.802;24.020;2022-11-20T10:31:53;25.52;;;9.00;;
65904;SDS011;56275;49.802;24.020;2022-11-20T10:35:00;18.95;;;8.48;;
65904;SDS011;56275;49.802;24.020;2022-11-20T10:38:22;16.52;;;8.55;;
65904;SDS011;56275;49.802;24.020;2022-11-20T10:41:27;21.92;;;7.45;;
65904;SDS011;56275;49.802;24.020;2022-11-20T10:44:28;23.88;;;6.97;;
65904;SDS011;56275;49.802;24.020;2022-11-20T10:47:39;15.45;;;7.97;;
65904;SDS011;56275;49.802;24.020;2022-11-20T10:50:30;24.20;;;8.93;;
65904;SDS011;56275;49.802;24.020;2022-11-20T10:56:39;19.33;;;8.95;;
65904;SDS011;56275;49.802;24.020;2022-11-20T11:02:46;22.23;;;9.77;;
65904;SDS011;56275;49.802;24.020;2022-11-20T11:05:48;20.23;;;8.70;;
65904;SDS011;56275;49.802;24.020;2022-11-20T11:08:48;17.35;;;9.23;;
65904;SDS011;56275;49.802;24.020;2022-11-20T11:11:43;21.75;;;8.98;;
65904;SDS011;56275;49.802;24.020;2022-11-20T11:14:45;19.65;;;8.57;;
65904;SDS011;56275;49.802;24.020;2022-11-20T11:17:46;17.88;;;8.95;;
65904;SDS011;56275;49.802;24.020;2022-11-20T11:20:38;18.13;;;9.07;;
65904;SDS011;56275;49.802;24.020;2022-11-20T11:23:41;13.38;;;7.93;;
65904;SDS011;56275;49.802;24.020;2022-11-20T11:26:33;16.23;;;8.80;;
65904;SDS011;56275;49.802;24.020;2022-11-20T11:29:25;16.23;;;8.32;;
65904;SDS011;56275;49.802;24.020;2022-11-20T11:32:19;18.70;;;8.10;;
65904;SDS011;56275;49.802;24.020;2022-11-20T11:38:21;17.52;;;7.60;;
65904;SDS011;56275;49.802;24.020;2022-11-20T11:41:23;17.50;;;8.18;;
65904;SDS011;56275;49.802;24.020;2022-11-20T11:47:36;17.27;;;8.43;;
65904;SDS011;56275;49.802;24.020;2022-11-20T11:50:31;17.20;;;8.00;;
65904;SDS011;56275;49.802;24.020;2022-11-20T11:53:23;13.55;;;7.00;;
65904;SDS011;56275;49.802;24.020;2022-11-20T11:56:18;12.93;;;7.80;;
65904;SDS011;56275;49.802;24.020;2022-11-20T11:59:12;16.05;;;8.63;;
65904;SDS011;56275;49.802;24.020;2022-11-20T12:02:23;15.07;;;8.10;;
65904;SDS011;56275;49.802;24.020;2022-11-20T12:05:26;16.20;;;7.75;;
65904;SDS011;56275;49.802;24.020;2022-11-20T12:14:45;15.35;;;8.77;;
65904;SDS011;56275;49.802;24.020;2022-11-20T12:17:40;12.88;;;6.82;;
65904;SDS011;56275;49.802;24.020;2022-11-20T12:20:34;18.58;;;7.93;;
65904;SDS011;56275;49.802;24.020;2022-11-20T12:30:04;12.82;;;8.38;;
65904;SDS011;56275;49.802;24.020;2022-11-20T12:33:17;14.30;;;7.47;;
65904;SDS011;56275;49.802;24.020;2022-11-20T12:52:30;11.05;;;6.30;;
65904;SDS011;56275;49.802;24.020;2022-11-20T13:08:22;14.82;;;5.95;;
65904;SDS011;56275;49.802;24.020;2022-11-20T13:11:25;11.05;;;6.13;;
65904;SDS011;56275;49.802;24.020;2022-11-20T13:17:25;10.38;;;5.70;;
65904;SDS011;56275;49.802;24.020;2022-11-20T13:20:24;11.20;;;5.82;;
65904;SDS011;56275;49.802;24.020;2022-11-20T13:23:23;11.00;;;5.80;;
65904;SDS011;56275;49.802;24.020;2022-11-20T13:26:24;9.40;;;6.25;;
65904;SDS011;56275;49.802;24.020;2022-11-20T13:29:16;9.60;;;5.97;;
65904;SDS011;56275;49.802;24.020;2022-11-20T13:32:17;15.40;;;6.47;;
65904;SDS011;56275;49.802;24.020;2022-11-20T13:35:11;8.27;;;5.35;;
65904;SDS011;56275;49.802;24.020;2022-11-20T13:38:14;14.77;;;7.25;;
65904;SDS011;56275;49.802;24.020;2022-11-20T13:41:07;9.00;;;5.63;;
65904;SDS011;56275;49.802;24.020;2022-11-20T13:47:29;16.90;;;5.57;;
65904;SDS011;56275;49.802;24.020;2022-11-20T13:50:21;10.10;;;5.68;;
65904;SDS011;56275;49.802;24.020;2022-11-20T13:59:46;10.48;;;4.97;;
65904;SDS011;56275;49.802;24.020;2022-11-20T14:06:14;11.43;;;5.72;;
65904;SDS011;56275;49.802;24.020;2022-11-20T14:09:24;11.25;;;5.95;;
65904;SDS011;56275;49.802;24.020;2022-11-20T14:12:22;9.63;;;6.07;;
65904;SDS011;56275;49.802;24.020;2022-11-20T14:15:26;13.80;;;6.28;;
65904;SDS011;56275;49.802;24.020;2022-11-20T14:18:22;14.18;;;6.80;;
65904;SDS011;56275;49.802;24.020;2022-11-20T14:21:26;12.40;;;6.55;;
65904;SDS011;56275;49.802;24.020;2022-11-20T14:24:23;12.32;;;6.63;;
65904;SDS011;56275;49.802;24.020;2022-11-20T14:27:16;13.20;;;6.68;;
65904;SDS011;56275;49.802;24.020;2022-11-20T14:30:14;12.52;;;7.05;;
65904;SDS011;56275;49.802;24.020;2022-11-20T14:33:09;14.27;;;7.30;;
65904;SDS011;56275;49.802;24.020;2022-11-20T14:36:03;14.70;;;7.28;;
65904;SDS011;56275;49.802;24.020;2022-11-20T14:38:55;20.33;;;7.80;;
65904;SDS011;56275;49.802;24.020;2022-11-20T14:41:53;13.65;;;7.95;;
65904;SDS011;56275;49.802;24.020;2022-11-20T14:44:45;17.38;;;6.75;;
65904;SDS011;56275;49.802;24.020;2022-11-20T14:47:37;16.42;;;8.02;;
65904;SDS011;56275;49.802;24.020;2022-11-20T14:50:29;15.45;;;7.20;;
65904;SDS011;56275;49.802;24.020;2022-11-20T14:53:24;13.40;;;7.47;;
65904;SDS011;56275;49.802;24.020;2022-11-20T14:56:21;19.80;;;8.27;;
65904;SDS011;56275;49.802;24.020;2022-11-20T14:59:22;15.20;;;7.40;;
65904;SDS011;56275;49.802;24.020;2022-11-20T15:02:17;15.23;;;8.13;;
65904;SDS011;56275;49.802;24.020;2022-11-20T15:05:09;20.25;;;8.02;;
65904;SDS011;56275;49.802;24.020;2022-11-20T15:08:06;11.07;;;7.25;;
65904;SDS011;56275;49.802;24.020;2022-11-20T15:10:59;13.05;;;7.22;;
65904;SDS011;56275;49.802;24.020;2022-11-20T15:13:51;13.40;;;8.63;;
65904;SDS011;56275;49.802;24.020;2022-11-20T15:16:43;15.63;;;8.13;;
65904;SDS011;56275;49.802;24.020;2022-11-20T15:19:35;11.88;;;6.90;;
65904;SDS011;56275;49.802;24.020;2022-11-20T15:22:27;13.50;;;7.03;;
65904;SDS011;56275;49.802;24.020;2022-11-20T15:25:18;11.63;;;6.57;;
65904;SDS011;56275;49.802;24.020;2022-11-20T15:28:13;12.15;;;7.15;;
65904;SDS011;56275;49.802;24.020;2022-11-20T15:31:11;12.25;;;7.50;;
65904;SDS011;56275;49.802;24.020;2022-11-20T15:34:04;11.20;;;6.93;;
65904;SDS011;56275;49.802;24.020;2022-11-20T15:36:59;17.00;;;7.55;;
65904;SDS011;56275;49.802;24.020;2022-11-20T15:39:50;10.13;;;7.25;;
65904;SDS011;56275;49.802;24.020;2022-11-20T15:42:41;19.15;;;6.82;;
65904;SDS011;56275;49.802;24.020;2022-11-20T15:45:56;17.75;;;6.55;;
65904;SDS011;56275;49.802;24.020;2022-11-20T15:48:52;20.85;;;7.53;;
65904;SDS011;56275;49.802;24.020;2022-11-20T15:51:47;13.82;;;6.63;;
65904;SDS011;56275;49.802;24.020;2022-11-20T15:54:39;7.68;;;5.55;;
65904;SDS011;56275;49.802;24.020;2022-11-20T15:57:30;11.80;;;6.25;;
65904;SDS011;56275;49.802;24.020;2022-11-20T16:00:22;11.65;;;6.07;;
65904;SDS011;56275;49.802;24.020;2022-11-20T16:03:14;15.30;;;6.50;;
65904;SDS011;56275;49.802;24.020;2022-11-20T16:06:06;12.77;;;6.03;;
65904;SDS011;56275;49.802;24.020;2022-11-20T16:08:57;13.80;;;6.47;;
65904;SDS011;56275;49.802;24.020;2022-11-20T16:11:48;10.48;;;6.72;;
65904;SDS011;56275;49.802;24.020;2022-11-20T16:14:39;10.73;;;5.90;;
65904;SDS011;56275;49.802;24.020;2022-11-20T16:17:49;11.82;;;6.05;;
65904;SDS011;56275;49.802;24.020;2022-11-20T16:20:41;13.60;;;7.38;;
65904;SDS011;56275;49.802;24.020;2022-11-20T16:23:33;14.60;;;5.50;;
65904;SDS011;56275;49.802;24.020;2022-11-20T16:26:24;12.75;;;6.68;;
65904;SDS011;56275;49.802;24.020;2022-11-20T16:29:15;11.98;;;6.10;;
65904;SDS011;56275;49.802;24.020;2022-11-20T16:32:06;14.48;;;7.68;;
65904;SDS011;56275;49.802;24.020;2022-11-20T16:34:59;15.02;;;6.15;;
65904;SDS011;56275;49.802;24.020;2022-11-20T16:37:51;11.35;;;6.32;;
65904;SDS011;56275;49.802;24.020;2022-11-20T16:40:43;11.95;;;6.18;;
65904;SDS011;56275;49.802;24.020;2022-11-20T16:43:34;11.63;;;6.40;;
65904;SDS011;56275;49.802;24.020;2022-11-20T16:46:29;12.55;;;6.40;;
65904;SDS011;56275;49.802;24.020;2022-11-20T16:49:21;17.65;;;6.55;;
65904;SDS011;56275;49.802;24.020;2022-11-20T16:52:14;13.02;;;6.00;;
65904;SDS011;56275;49.802;24.020;2022-11-20T16:55:05;12.57;;;5.90;;
65904;SDS011;56275;49.802;24.020;2022-11-20T16:57:57;9.40;;;5.65;;
65904;SDS011;56275;49.802;24.020;2022-11-20T17:00:49;11.65;;;6.07;;
65904;SDS011;56275;49.802;24.020;2022-11-20T17:03:41;13.02;;;6.13;;
65904;SDS011;56275;49.802;24.020;2022-11-20T17:06:36;14.50;;;6.18;;
65904;SDS011;56275;49.802;24.020;2022-11-20T17:09:30;8.50;;;6.07;;
65904;SDS011;56275;49.802;24.020;2022-11-20T17:12:21;22.90;;;5.43;;
65904;SDS011;56275;49.802;24.020;2022-11-20T17:15:12;14.15;;;5.63;;
65904;SDS011;56275;49.802;24.020;2022-11-20T17:18:04;11.48;;;6.07;;
65904;SDS011;56275;49.802;24.020;2022-11-20T17:20:56;14.02;;;6.07;;
65904;SDS011;56275;49.802;24.020;2022-11-20T17:23:49;11.57;;;5.20;;
65904;SDS011;56275;49.802;24.020;2022-11-20T17:26:42;17.08;;;5.78;;
65904;SDS011;56275;49.802;24.020;2022-11-20T17:29:34;9.88;;;5.70;;
65904;SDS011;56275;49.802;24.020;2022-11-20T17:32:25;13.85;;;5.70;;
65904;SDS011;56275;49.802;24.020;2022-11-20T17:35:17;15.90;;;5.32;;
65904;SDS011;56275;49.802;24.020;2022-11-20T17:38:08;14.90;;;5.90;;
65904;SDS011;56275;49.802;24.020;2022-11-20T17:41:09;12.98;;;6.25;;
65904;SDS011;56275;49.802;24.020;2022-11-20T17:44:02;15.65;;;6.90;;
65904;SDS011;56275;49.802;24.020;2022-11-20T17:46:54;15.20;;;6.43;;
65904;SDS011;56275;49.802;24.020;2022-11-20T17:49:45;16.98;;;7.22;;
65904;SDS011;56275;49.802;24.020;2022-11-20T17:52:36;19.33;;;7.68;;
65904;SDS011;56275;49.802;24.020;2022-11-20T17:55:27;16.02;;;7.05;;
65904;SDS011;56275;49.802;24.020;2022-11-20T17:58:38;20.08;;;7.10;;
65904;SDS011;56275;49.802;24.020;2022-11-20T18:01:30;16.02;;;7.50;;
65904;SDS011;56275;49.802;24.020;2022-11-20T18:04:22;18.38;;;7.40;;
65904;SDS011;56275;49.802;24.020;2022-11-20T18:07:14;16.90;;;7.75;;
65904;SDS011;56275;49.802;24.020;2022-11-20T18:10:05;12.50;;;8.60;;
65904;SDS011;56275;49.802;24.020;2022-11-20T18:12:58;19.05;;;8.05;;
65904;SDS011;56275;49.802;24.020;2022-11-20T18:15:49;18.88;;;8.35;;
65904;SDS011;56275;49.802;24.020;2022-11-20T18:18:41;15.70;;;8.85;;
65904;SDS011;56275;49.802;24.020;2022-11-20T18:21:32;20.15;;;8.10;;
65904;SDS011;56275;49.802;24.020;2022-11-20T18:24:23;9.93;;;7.18;;
65904;SDS011;56275;49.802;24.020;2022-11-20T18:27:15;16.42;;;7.90;;
65904;SDS011;56275;49.802;24.020;2022-11-20T18:30:08;16.08;;;8.07;;
65904;SDS011;56275;49.802;24.020;2022-11-20T18:33:01;12.30;;;7.38;;
65904;SDS011;56275;49.802;24.020;2022-11-20T18:35:55;14.82;;;7.95;;
65904;SDS011;56275;49.802;24.020;2022-11-20T18:38:47;15.45;;;7.90;;
65904;SDS011;56275;49.802;24.020;2022-11-20T18:41:39;14.32;;;8.32;;
65904;SDS011;56275;49.802;24.020;2022-11-20T18:44:50;13.65;;;7.95;;
65904;SDS011;56275;49.802;24.020;2022-11-20T18:47:42;24.00;;;8.00;;
65904;SDS011;56275;49.802;24.020;2022-11-20T18:50:33;11.73;;;7.63;;
65904;SDS011;56275;49.802;24.020;2022-11-20T18:53:24;19.70;;;8.15;;
65904;SDS011;56275;49.802;24.020;2022-11-20T18:56:15;15.95;;;8.00;;
65904;SDS011;56275;49.802;24.020;2022-11-20T18:59:08;14.38;;;7.60;;
65904;SDS011;56275;49.802;24.020;2022-11-20T19:02:00;13.40;;;7.38;;
65904;SDS011;56275;49.802;24.020;2022-11-20T19:04:52;16.23;;;7.63;;
65904;SDS011;56275;49.802;24.020;2022-11-20T19:07:44;11.32;;;6.70;;
65904;SDS011;56275;49.802;24.020;2022-11-20T19:10:36;13.18;;;7.32;;
65904;SDS011;56275;49.802;24.020;2022-11-20T19:13:27;13.77;;;7.43;;
65904;SDS011;56275;49.802;24.020;2022-11-20T19:16:20;15.70;;;6.63;;
65904;SDS011;56275;49.802;24.020;2022-11-20T19:19:13;11.48;;;6.78;;
65904;SDS011;56275;49.802;24.020;2022-11-20T19:22:04;13.38;;;7.13;;
65904;SDS011;56275;49.802;24.020;2022-11-20T19:24:57;12.80;;;6.97;;
65904;SDS011;56275;49.802;24.020;2022-11-20T19:27:49;15.27;;;7.15;;
65904;SDS011;56275;49.802;24.020;2022-11-20T19:30:41;16.42;;;6.90;;
65904;SDS011;56275;49.802;24.020;2022-11-20T19:33:32;9.35;;;6.43;;
65904;SDS011;56275;49.802;24.020;2022-11-20T19:36:25;13.43;;;6.63;;
65904;SDS011;56275;49.802;24.020;2022-11-20T19:39:21;8.95;;;6.18;;
65904;SDS011;56275;49.802;24.020;2022-11-20T19:42:12;16.30;;;6.80;;
65904;SDS011;56275;49.802;24.020;2022-11-20T19:45:03;11.10;;;6.53;;
65904;SDS011;56275;49.802;24.020;2022-11-20T19:47:56;14.13;;;6.88;;
65904;SDS011;56275;49.802;24.020;2022-11-20T19:50:48;11.57;;;6.35;;
65904;SDS011;56275;49.802;24.020;2022-11-20T19:53:40;12.57;;;7.15;;
65904;SDS011;56275;49.802;24.020;2022-11-20T19:56:32;19.88;;;7.15;;
65904;SDS011;56275;49.802;24.020;2022-11-20T19:59:24;10.68;;;6.45;;
65904;SDS011;56275;49.802;24.020;2022-11-20T20:02:16;13.35;;;6.63;;
65904;SDS011;56275;49.802;24.020;2022-11-20T20:05:08;10.90;;;6.45;;
65904;SDS011;56275;49.802;24.020;2022-11-20T20:07:59;15.70;;;6.60;;
65904;SDS011;56275;49.802;24.020;2022-11-20T20:10:50;11.30;;;6.45;;
65904;SDS011;56275;49.802;24.020;2022-11-20T20:13:41;10.88;;;6.53;;
65904;SDS011;56275;49.802;24.020;2022-11-20T20:16:33;12.50;;;6.50;;
65904;SDS011;56275;49.802;24.020;2022-11-20T20:19:25;9.13;;;5.70;;
65904;SDS011;56275;49.802;24.020;2022-11-20T20:22:17;10.15;;;6.25;;
65904;SDS011;56275;49.802;24.020;2022-11-20T20:25:08;11.02;;;6.35;;
65904;SDS011;56275;49.802;24.020;2022-11-20T20:28:00;9.93;;;6.07;;
65904;SDS011;56275;49.802;24.020;2022-11-20T20:30:52;12.48;;;5.85;;
65904;SDS011;56275;49.802;24.020;2022-11-20T20:33:44;12.57;;;6.13;;
65904;SDS011;56275;49.802;24.020;2022-11-20T20:36:36;10.15;;;6.25;;
65904;SDS011;56275;49.802;24.020;2022-11-20T20:39:28;11.40;;;6.13;;
65904;SDS011;56275;49.802;24.020;2022-11-20T20:42:19;11.45;;;6.05;;
65904;SDS011;56275;49.802;24.020;2022-11-20T20:45:10;12.57;;;6.43;;
65904;SDS011;56275;49.802;24.020;2022-11-20T20:48:03;10.55;;;6.03;;
65904;SDS011;56275;49.802;24.020;2022-11-20T20:50:55;8.23;;;5.35;;
65904;SDS011;56275;49.802;24.020;2022-11-20T20:56:43;10.18;;;5.72;;
65904;SDS011;56275;49.802;24.020;2022-11-20T20:59:35;11.88;;;5.93;;
65904;SDS011;56275;49.802;24.020;2022-11-20T21:02:26;11.10;;;6.25;;
65904;SDS011;56275;49.802;24.020;2022-11-20T21:05:17;9.32;;;6.40;;
65904;SDS011;56275;49.802;24.020;2022-11-20T21:08:08;9.27;;;5.50;;
65904;SDS011;56275;49.802;24.020;2022-11-20T21:11:14;8.10;;;5.40;;
65904;SDS011;56275;49.802;24.020;2022-11-20T21:14:06;9.18;;;5.88;;
65904;SDS011;56275;49.802;24.020;2022-11-20T21:16:57;9.38;;;5.65;;
65904;SDS011;56275;49.802;24.020;2022-11-20T21:19:42;9.25;;;4.82;;
65904;SDS011;56275;49.802;24.020;2022-11-20T21:22:27;7.95;;;4.97;;
65904;SDS011;56275;49.802;24.020;2022-11-20T21:25:19;7.57;;;5.30;;
65904;SDS011;56275;49.802;24.020;2022-11-20T21:28:10;9.63;;;6.03;;
65904;SDS011;56275;49.802;24.020;2022-11-20T21:34:04;9.70;;;5.93;;
65904;SDS011;56275;49.802;24.020;2022-11-20T21:36:57;8.02;;;5.63;;
65904;SDS011;56275;49.802;24.020;2022-11-20T21:39:48;8.48;;;4.85;;
65904;SDS011;56275;49.802;24.020;2022-11-20T21:42:41;9.82;;;5.32;;
65904;SDS011;56275;49.802;24.020;2022-11-20T21:45:33;9.85;;;5.72;;
65904;SDS011;56275;49.802;24.020;2022-11-20T21:48:26;7.70;;;5.97;;
65904;SDS011;56275;49.802;24.020;2022-11-20T21:51:20;9.15;;;5.25;;
65904;SDS011;56275;49.802;24.020;2022-11-20T21:54:13;8.52;;;5.13;;
65904;SDS011;56275;49.802;24.020;2022-11-20T21:57:06;7.22;;;4.85;;
65904;SDS011;56275;49.802;24.020;2022-11-20T21:59:57;7.72;;;5.38;;
65904;SDS011;56275;49.802;24.020;2022-11-20T22:02:48;8.93;;;5.32;;
65904;SDS011;56275;49.802;24.020;2022-11-20T22:05:39;7.60;;;5.07;;
65904;SDS011;56275;49.802;24.020;2022-11-20T22:08:30;7.45;;;4.97;;
65904;SDS011;56275;49.802;24.020;2022-11-20T22:11:23;9.55;;;5.88;;
65904;SDS011;56275;49.802;24.020;2022-11-20T22:14:15;9.93;;;5.68;;
65904;SDS011;56275;49.802;24.020;2022-11-20T22:17:11;7.93;;;5.32;;
65904;SDS011;56275;49.802;24.020;2022-11-20T22:20:03;7.13;;;4.70;;
65904;SDS011;56275;49.802;24.020;2022-11-20T22:22:55;6.70;;;4.60;;
65904;SDS011;56275;49.802;24.020;2022-11-20T22:25:46;6.38;;;4.78;;
65904;SDS011;56275;49.802;24.020;2022-11-20T22:28:37;6.70;;;4.15;;
65904;SDS011;56275;49.802;24.020;2022-11-20T22:31:29;7.13;;;4.65;;
65904;SDS011;56275;49.802;24.020;2022-11-20T22:34:21;7.22;;;4.88;;
65904;SDS011;56275;49.802;24.020;2022-11-20T22:37:13;9.55;;;5.13;;
65904;SDS011;56275;49.802;24.020;2022-11-20T22:40:04;8.18;;;4.55;;
65904;SDS011;56275;49.802;24.020;2022-11-20T22:42:56;12.10;;;5.05;;
65904;SDS011;56275;49.802;24.020;2022-11-20T22:45:47;7.22;;;4.63;;
65904;SDS011;56275;49.802;24.020;2022-11-20T22:48:39;7.43;;;4.45;;
65904;SDS011;56275;49.802;24.020;2022-11-20T22:51:33;8.40;;;4.65;;
65904;SDS011;56275;49.802;24.020;2022-11-20T22:54:20;5.68;;;4.18;;
65904;SDS011;56275;49.802;24.020;2022-11-20T22:57:05;8.32;;;3.88;;
65904;SDS011;56275;49.802;24.020;2022-11-20T22:59:56;7.35;;;4.45;;
65904;SDS011;56275;49.802;24.020;2022-11-20T23:02:44;6.35;;;3.83;;
65904;SDS011;56275;49.802;24.020;2022-11-20T23:05:30;5.40;;;3.83;;
65904;SDS011;56275;49.802;24.020;2022-11-20T23:08:16;5.75;;;3.92;;
65904;SDS011;56275;49.802;24.020;2022-11-20T23:11:11;6.05;;;4.13;;
65904;SDS011;56275;49.802;24.020;2022-11-20T23:14:05;7.53;;;3.83;;
65904;SDS011;56275;49.802;24.020;2022-11-20T23:17:02;5.57;;;3.53;;
65904;SDS011;56275;49.802;24.020;2022-11-20T23:19:53;7.53;;;4.57;;
65904;SDS011;56275;49.802;24.020;2022-11-20T23:22:44;5.72;;;3.90;;
65904;SDS011;56275;49.802;24.020;2022-11-20T23:25:35;6.35;;;3.92;;
65904;SDS011;56275;49.802;24.020;2022-11-20T23:28:26;6.47;;;3.97;;
65904;SDS011;56275;49.802;24.020;2022-11-20T23:31:18;9.68;;;3.92;;
65904;SDS011;56275;49.802;24.020;2022-11-20T23:34:10;5.97;;;4.10;;
65904;SDS011;56275;49.802;24.020;2022-11-20T23:37:02;5.32;;;3.85;;
65904;SDS011;56275;49.802;24.020;2022-11-20T23:39:48;7.30;;;4.70;;
65904;SDS011;56275;49.802;24.020;2022-11-20T23:42:33;6.93;;;4.00;;
65904;SDS011;56275;49.802;24.020;2022-11-20T23:45:25;5.45;;;3.65;;
65904;SDS011;56275;49.802;24.020;2022-11-20T23:48:10;5.85;;;3.92;;
65904;SDS011;56275;49.802;24.020;2022-11-20T23:50:55;6.28;;;3.58;;
65904;SDS011;56275;49.802;24.020;2022-11-20T23:53:40;4.15;;;3.30;;
65904;SDS011;56275;49.802;24.020;2022-11-20T23:56:25;6.15;;;3.63;;
65904;SDS011;56275;49.802;24.020;2022-11-20T23:59:17;5.80;;;3.08;;
